createdAt,value
2023-04-15T00:01:53.961Z,98769.61
2023-04-15T00:06:57.095Z,98765.16
2023-04-15T00:11:59.447Z,98769.29
2023-04-15T00:17:03.670Z,98768.46
2023-04-15T00:22:05.725Z,98773.02
2023-04-15T00:27:09.108Z,98777.55
2023-04-15T00:32:11.680Z,98780.57
2023-04-15T00:37:15.384Z,98783.75
2023-04-15T00:42:18.793Z,98778.84
2023-04-15T00:47:22.830Z,98777.52
2023-04-15T00:52:26.889Z,98778.15
2023-04-15T00:57:28.763Z,98777.47
2023-04-15T01:02:32.391Z,98768.20
2023-04-15T01:07:35.760Z,98766.55
2023-04-15T01:12:39.685Z,98768.08
2023-04-15T01:17:44.089Z,98769.98
2023-04-15T01:22:46.519Z,98768.44
2023-04-15T01:27:48.391Z,98769.23
2023-04-15T01:32:51.222Z,98767.93
2023-04-15T01:37:59.359Z,98764.74
2023-04-15T01:43:03.507Z,98769.63
2023-04-15T01:48:06.950Z,98769.25
2023-04-15T01:53:09.778Z,98776.01
2023-04-15T01:58:13.103Z,98778.77
2023-04-15T02:03:16.162Z,98779.73
2023-04-15T02:08:19.271Z,98784.08
2023-04-15T02:13:22.071Z,98788.38
2023-04-15T02:18:26.164Z,98789.19
2023-04-15T02:23:31.801Z,98790.25
2023-04-15T02:28:34.704Z,98792.73
2023-04-15T02:33:37.938Z,98789.17
2023-04-15T02:38:42.615Z,98791.31
2023-04-15T02:43:47.677Z,98798.33
2023-04-15T02:48:54.763Z,98800.08
2023-04-15T02:53:58.338Z,98802.27
2023-04-15T02:59:00.548Z,98805.16
2023-04-15T03:04:04.677Z,98804.06
2023-04-15T03:09:07.365Z,98801.06
2023-04-15T03:14:09.439Z,98804.11
2023-04-15T03:19:12.137Z,98804.09
2023-04-15T03:24:16.208Z,98805.31
2023-04-15T03:29:18.049Z,98807.73
2023-04-15T03:34:20.888Z,98809.23
2023-04-15T03:39:24.194Z,98813.50
2023-04-15T03:44:28.240Z,98810.32
2023-04-15T03:49:31.740Z,98811.46
2023-04-15T03:54:34.654Z,98814.63
2023-04-15T03:59:36.887Z,98815.46
2023-04-15T04:04:39.565Z,98820.30
2023-04-15T04:09:45.186Z,98817.45
2023-04-15T04:14:50.750Z,98821.92
2023-04-15T04:19:53.100Z,98826.42
2023-04-15T04:24:56.691Z,98826.35
2023-04-15T04:30:00.913Z,98828.64
2023-04-15T04:35:04.544Z,98834.41
2023-04-15T04:40:10.908Z,98836.55
2023-04-15T04:45:13.735Z,98834.97
2023-04-15T04:50:17.374Z,98835.30
2023-04-15T04:55:19.846Z,98835.89
2023-04-15T05:00:23.289Z,98836.30
2023-04-15T05:05:27.154Z,98840.42
2023-04-15T05:10:29.731Z,98839.64
2023-04-15T05:15:34.994Z,98848.46
2023-04-15T05:20:37.714Z,98850.76
2023-04-15T05:25:41.534Z,98851.51
2023-04-15T05:30:44.312Z,98850.70
2023-04-15T05:35:48.063Z,98854.09
2023-04-15T05:40:50.411Z,98857.23
2023-04-15T05:45:54.346Z,98860.84
2023-04-15T05:50:57.318Z,98863.65
2023-04-15T05:56:01.489Z,98868.94
2023-04-15T06:01:04.347Z,98881.48
2023-04-15T06:06:10.054Z,98889.60
2023-04-15T06:11:14.506Z,98893.93
2023-04-15T06:16:17.798Z,98892.21
2023-04-15T06:21:23.968Z,98888.88
2023-04-15T06:26:28.511Z,98892.38
2023-04-15T06:31:31.915Z,98892.34
2023-04-15T06:36:34.251Z,98896.98
2023-04-15T06:41:40.969Z,98906.52
2023-04-15T06:46:44.534Z,98912.83
2023-04-15T06:51:47.949Z,98916.55
2023-04-15T06:56:51.235Z,98920.75
2023-04-15T07:01:54.697Z,98924.76
2023-04-15T07:06:57.194Z,98924.63
2023-04-15T07:11:59.862Z,98930.38
2023-04-15T07:17:02.332Z,98938.67
2023-04-15T07:22:04.606Z,98944.96
2023-04-15T07:27:07.946Z,98946.44
2023-04-15T07:32:11.549Z,98951.23
2023-04-15T07:37:16.001Z,98951.25
2023-04-15T07:42:20.064Z,98946.86
2023-04-15T07:47:23.078Z,98948.65
2023-04-15T07:52:24.730Z,98951.96
2023-04-15T07:57:27.784Z,98951.30
2023-04-15T08:02:30.453Z,98951.90
2023-04-15T08:07:33.763Z,98956.24
2023-04-15T08:12:36.676Z,98961.52
2023-04-15T08:17:38.713Z,98960.73
2023-04-15T08:22:41.638Z,98957.33
2023-04-15T08:27:46.183Z,98952.73
2023-04-15T08:32:51.830Z,98957.47
2023-04-15T08:37:54.638Z,98961.89
2023-04-15T08:43:00.122Z,98964.76
2023-04-15T08:48:06.169Z,98965.68
2023-04-15T08:53:11.133Z,98966.56
2023-04-15T08:58:15.864Z,98972.25
2023-04-15T09:03:19.725Z,98974.48
2023-04-15T09:08:24.116Z,98973.61
2023-04-15T09:13:26.715Z,98975.27
2023-04-15T09:18:34.465Z,98976.63
2023-04-15T09:23:40.165Z,98966.20
2023-04-15T09:28:46.811Z,98968.86
2023-04-15T09:33:56.952Z,98962.77
2023-04-15T09:39:01.055Z,98967.02
2023-04-15T09:44:04.313Z,98963.84
2023-04-15T09:49:11.999Z,98965.42
2023-04-15T09:54:22.132Z,98970.61
2023-04-15T09:59:25.887Z,98972.98
2023-04-15T10:04:32.909Z,98975.99
2023-04-15T10:09:38.476Z,98981.69
2023-04-15T10:14:44.019Z,98979.20
2023-04-15T10:19:48.562Z,98978.33
2023-04-15T10:24:52.501Z,98980.51
2023-04-15T10:29:58.622Z,98983.46
2023-04-15T10:35:02.443Z,98989.28
2023-04-15T10:40:27.698Z,98993.27
2023-04-15T10:45:39.825Z,98998.23
2023-04-15T10:50:58.102Z,98995.54
2023-04-15T10:56:02.350Z,99002.93
2023-04-15T11:01:05.888Z,98999.59
2023-04-15T11:06:09.963Z,99003.98
2023-04-15T11:11:16.695Z,98999.34
2023-04-15T11:16:20.295Z,99001.20
2023-04-15T11:21:27.977Z,99002.24
2023-04-15T11:26:32.328Z,99004.41
2023-04-15T11:31:37.902Z,99015.91
2023-04-15T11:36:44.034Z,99029.96
2023-04-15T11:41:47.264Z,99036.55
2023-04-15T11:46:51.491Z,99047.49
2023-04-15T11:51:55.385Z,99052.77
2023-04-15T11:57:00.056Z,99056.24
2023-04-15T12:02:13.004Z,99055.53
2023-04-15T12:07:17.373Z,99058.33
2023-04-15T12:12:20.300Z,99068.30
2023-04-15T12:17:25.334Z,99078.16
2023-04-15T12:22:28.051Z,99085.59
2023-04-15T12:27:31.887Z,99092.83
2023-04-15T12:32:37.041Z,99097.55
2023-04-15T12:37:39.168Z,99093.54
2023-04-15T12:42:41.065Z,99094.52
2023-04-15T12:47:43.973Z,99099.21
2023-04-15T12:52:47.188Z,99101.17
2023-04-15T12:57:49.527Z,99103.47
2023-04-15T13:02:51.693Z,99105.41
2023-04-15T13:07:54.066Z,99105.22
2023-04-15T13:12:56.682Z,99098.13
2023-04-15T13:17:59.332Z,99098.48
2023-04-15T13:23:17.883Z,99102.69
2023-04-15T13:28:20.192Z,99104.34
2023-04-15T13:33:23.186Z,99107.48
2023-04-15T13:38:25.637Z,99113.15
2023-04-15T13:43:28.384Z,99109.75
2023-04-15T13:48:30.435Z,99112.11
2023-04-15T13:53:37.815Z,99111.97
2023-04-15T13:58:41.500Z,99111.23
2023-04-15T14:03:44.165Z,99106.84
2023-04-15T14:08:46.430Z,99114.02
2023-04-15T14:13:49.409Z,99117.96
2023-04-15T14:18:52.376Z,99111.29
2023-04-15T14:23:54.850Z,99119.95
2023-04-15T14:28:56.987Z,99130.17
2023-04-15T14:33:59.215Z,99140.08
2023-04-15T14:39:04.947Z,99142.73
2023-04-15T14:44:11.497Z,99149.52
2023-04-15T14:49:14.579Z,99154.88
2023-04-15T14:54:17.601Z,99159.16
2023-04-15T14:59:19.794Z,99158.71
2023-04-15T15:04:22.913Z,99155.64
2023-04-15T15:09:26.713Z,99156.83
2023-04-15T15:14:31.498Z,99165.80
2023-04-15T15:19:34.803Z,99173.27
2023-04-15T15:24:38.876Z,99174.48
2023-04-15T15:29:43.020Z,99176.28
2023-04-15T15:34:46.177Z,99191.89
2023-04-15T15:39:53.169Z,99198.55
2023-04-15T15:44:56.363Z,99205.59
2023-04-15T15:50:02.604Z,99209.36
2023-04-15T15:55:07.849Z,99215.69
2023-04-15T16:00:12.836Z,99223.93
2023-04-15T16:05:15.908Z,99212.31
2023-04-15T16:10:18.337Z,99213.75
2023-04-15T16:15:20.571Z,99214.86
2023-04-15T16:20:24.566Z,99219.39
2023-04-15T16:25:26.809Z,99223.47
2023-04-15T16:30:29.171Z,99224.02
2023-04-15T16:35:32.759Z,99226.35
2023-04-15T16:40:37.418Z,99236.17
2023-04-15T16:45:40.146Z,99233.82
2023-04-15T16:50:46.397Z,99239.16
2023-04-15T16:55:49.269Z,99240.11
2023-04-15T17:00:52.876Z,99251.91
2023-04-15T17:05:55.558Z,99262.61
2023-04-15T17:10:57.845Z,99264.71
2023-04-15T17:16:01.894Z,99273.81
2023-04-15T17:21:06.095Z,99275.65
2023-04-15T17:26:08.923Z,99282.83
2023-04-15T17:31:11.789Z,99287.55
2023-04-15T17:36:15.245Z,99287.02
2023-04-15T17:41:18.540Z,99291.42
2023-04-15T17:46:23.342Z,99295.10
2023-04-15T17:51:26.100Z,99304.88
2023-04-15T17:56:29.329Z,99306.66
2023-04-15T18:01:31.641Z,99315.08
2023-04-15T18:06:35.303Z,99320.88
2023-04-15T18:11:40.345Z,99326.70
2023-04-15T18:16:43.726Z,99330.58
2023-04-15T18:21:49.317Z,99333.36
2023-04-15T18:26:52.923Z,99341.80
2023-04-15T18:31:58.865Z,99343.61
2023-04-15T18:37:01.985Z,99342.67
2023-04-15T18:42:04.490Z,99350.20
2023-04-15T18:47:07.531Z,99350.33
2023-04-15T18:52:11.448Z,99359.33
2023-04-15T18:57:13.924Z,99367.36
2023-04-15T19:02:27.703Z,99366.40
2023-04-15T19:07:31.025Z,99372.31
2023-04-15T19:12:33.759Z,99381.66
2023-04-15T19:17:35.969Z,99392.02
2023-04-15T19:22:38.992Z,99393.11
2023-04-15T19:27:41.245Z,99395.16
2023-04-15T19:32:43.573Z,99404.14
2023-04-15T19:37:48.583Z,99404.55
2023-04-15T19:42:51.475Z,99409.05
2023-04-15T19:47:54.680Z,99408.17
2023-04-15T19:52:57.022Z,99407.92
2023-04-15T19:57:59.645Z,99414.64
2023-04-15T20:03:01.735Z,99413.77
2023-04-15T20:08:04.165Z,99411.95
2023-04-15T20:13:06.240Z,99417.63
2023-04-15T20:18:08.699Z,99427.00
2023-04-15T20:23:11.176Z,99425.39
2023-04-15T20:28:15.552Z,99426.20
2023-04-15T20:33:17.489Z,99429.58
2023-04-15T20:38:21.560Z,99436.34
2023-04-15T20:43:27.428Z,99434.73
2023-04-15T20:48:31.467Z,99430.11
2023-04-15T20:53:35.197Z,99427.67
2023-04-15T20:58:39.337Z,99430.30
2023-04-15T21:03:42.991Z,99441.02
2023-04-15T21:08:46.203Z,99443.42
2023-04-15T21:13:51.064Z,99445.53
2023-04-15T21:18:54.750Z,99451.39
2023-04-15T21:24:00.938Z,99456.21
2023-04-15T21:29:03.610Z,99450.70
2023-04-15T21:34:07.924Z,99450.23
2023-04-15T21:39:12.219Z,99451.89
2023-04-15T21:44:15.926Z,99450.25
2023-04-15T21:49:20.747Z,99451.55
2023-04-15T21:54:24.432Z,99451.95
2023-04-15T21:59:28.978Z,99458.86
2023-04-15T22:04:32.042Z,99463.67
2023-04-15T22:09:35.305Z,99474.80
2023-04-15T22:14:39.401Z,99485.33
2023-04-15T22:19:42.699Z,99487.20
2023-04-15T22:24:45.843Z,99488.90
2023-04-15T22:29:48.198Z,99493.75
2023-04-15T22:34:51.647Z,99499.52
2023-04-15T22:39:56.889Z,99501.04
2023-04-15T22:44:59.822Z,99506.48
2023-04-15T22:50:04.514Z,99512.02
2023-04-15T22:55:09.192Z,99511.09
2023-04-15T23:00:12.373Z,99516.02
2023-04-15T23:05:15.430Z,99517.39
2023-04-15T23:10:19.666Z,99521.29
2023-04-15T23:15:24.967Z,99525.33
2023-04-15T23:20:28.112Z,99522.80
2023-04-15T23:25:30.065Z,99525.34
2023-04-15T23:30:37.010Z,99528.73
2023-04-15T23:35:39.984Z,99530.05
2023-04-15T23:40:43.467Z,99528.86
2023-04-15T23:45:46.318Z,99531.97
2023-04-15T23:50:50.534Z,99537.39
2023-04-15T23:55:54.383Z,99538.23
